createdAt,value
2023-03-29T00:00:14.307Z,4.73
2023-03-29T00:02:43.352Z,4.73
2023-03-29T00:05:12.288Z,4.60
2023-03-29T00:07:41.280Z,4.83
2023-03-29T00:10:13.054Z,4.60
2023-03-29T00:12:42.085Z,4.27
2023-03-29T00:15:11.454Z,4.70
2023-03-29T00:17:39.696Z,4.67
2023-03-29T00:20:10.340Z,4.70
2023-03-29T00:22:39.896Z,4.53
2023-03-29T00:25:08.405Z,4.33
2023-03-29T00:27:38.055Z,4.27
2023-03-29T00:30:07.683Z,4.60
2023-03-29T00:32:36.246Z,4.67
2023-03-29T00:35:05.372Z,5.07
2023-03-29T00:37:33.944Z,4.90
2023-03-29T00:40:01.917Z,4.57
2023-03-29T00:42:29.981Z,4.57
2023-03-29T00:45:02.722Z,4.80
2023-03-29T00:47:36.208Z,4.50
2023-03-29T00:50:09.892Z,4.73
2023-03-29T00:52:40.084Z,4.47
2023-03-29T00:55:13.295Z,4.50
2023-03-29T00:57:46.811Z,4.57
2023-03-29T01:00:20.964Z,4.53
2023-03-29T01:02:54.260Z,4.33
2023-03-29T01:05:27.267Z,4.70
2023-03-29T01:08:00.421Z,4.60
2023-03-29T01:10:36.983Z,4.67
2023-03-29T01:13:09.790Z,5.07
2023-03-29T01:15:43.375Z,4.70
2023-03-29T01:18:11.498Z,5.07
2023-03-29T01:21:03.128Z,4.70
2023-03-29T01:23:58.357Z,4.70
2023-03-29T01:26:36.215Z,4.60
2023-03-29T01:29:11.202Z,4.07
2023-03-29T01:31:43.190Z,4.50
2023-03-29T01:34:14.216Z,4.87
2023-03-29T01:36:49.493Z,4.87
2023-03-29T01:39:19.023Z,4.73
2023-03-29T01:41:59.467Z,4.80
2023-03-29T01:44:36.793Z,4.80
2023-03-29T01:47:13.518Z,4.37
2023-03-29T01:49:45.485Z,4.87
2023-03-29T01:52:20.007Z,4.63
2023-03-29T01:54:53.478Z,4.87
2023-03-29T01:57:25.151Z,4.57
2023-03-29T01:59:58.475Z,4.37
2023-03-29T02:02:29.694Z,4.70
2023-03-29T02:04:59.333Z,4.70
2023-03-29T02:07:40.827Z,4.63
2023-03-29T02:10:11.271Z,4.97
2023-03-29T02:12:39.836Z,4.20
2023-03-29T02:15:14.108Z,4.17
2023-03-29T02:17:44.278Z,4.90
2023-03-29T02:20:17.697Z,4.67
2023-03-29T02:22:53.359Z,5.00
2023-03-29T02:25:22.664Z,4.63
2023-03-29T02:27:50.696Z,4.60
2023-03-29T02:30:21.933Z,4.87
2023-03-29T02:32:55.474Z,4.40
2023-03-29T02:35:34.276Z,4.70
2023-03-29T02:38:04.834Z,4.80
2023-03-29T02:40:34.783Z,4.40
2023-03-29T02:43:08.431Z,4.27
2023-03-29T02:45:40.529Z,4.57
2023-03-29T02:48:19.829Z,4.70
2023-03-29T02:50:51.764Z,4.60
2023-03-29T02:53:24.234Z,5.17
2023-03-29T02:55:52.877Z,4.80
2023-03-29T02:58:20.758Z,4.70
2023-03-29T03:00:50.406Z,4.30
2023-03-29T03:03:18.468Z,4.30
2023-03-29T03:05:46.361Z,4.53
2023-03-29T03:08:14.564Z,4.67
2023-03-29T03:10:42.736Z,4.57
2023-03-29T03:13:10.579Z,4.63
2023-03-29T03:15:42.693Z,4.73
2023-03-29T03:18:12.910Z,4.67
2023-03-29T03:20:41.215Z,4.93
2023-03-29T03:23:10.742Z,4.43
2023-03-29T03:25:38.826Z,4.80
2023-03-29T03:28:06.710Z,4.23
2023-03-29T03:30:34.912Z,4.70
2023-03-29T03:33:03.015Z,4.27
2023-03-29T03:35:32.237Z,5.00
2023-03-29T03:38:00.303Z,4.37
2023-03-29T03:40:28.461Z,4.30
2023-03-29T03:42:56.228Z,4.70
2023-03-29T03:45:24.847Z,5.00
2023-03-29T03:47:52.848Z,5.00
2023-03-29T03:50:20.932Z,4.23
2023-03-29T03:52:50.232Z,4.50
2023-03-29T03:55:18.091Z,4.63
2023-03-29T03:57:45.904Z,4.77
2023-03-29T04:00:20.297Z,4.73
2023-03-29T04:02:48.988Z,4.97
2023-03-29T04:05:17.590Z,4.80
2023-03-29T04:07:45.439Z,4.50
2023-03-29T04:10:15.721Z,4.73
2023-03-29T04:12:43.968Z,4.87
2023-03-29T04:15:12.237Z,4.67
2023-03-29T04:17:40.289Z,4.50
2023-03-29T04:20:11.377Z,4.53
2023-03-29T04:22:39.436Z,5.83
2023-03-29T04:25:10.434Z,5.00
2023-03-29T04:27:39.673Z,4.60
2023-03-29T04:30:09.566Z,4.47
2023-03-29T04:32:37.686Z,4.90
2023-03-29T04:35:06.596Z,4.87
2023-03-29T04:37:34.838Z,4.90
2023-03-29T04:40:04.599Z,4.53
2023-03-29T04:42:32.359Z,5.53
2023-03-29T04:45:01.620Z,5.70
2023-03-29T04:47:30.148Z,5.40
2023-03-29T04:49:58.288Z,5.20
2023-03-29T04:52:26.529Z,4.60
2023-03-29T04:54:54.392Z,5.60
2023-03-29T04:57:22.273Z,6.00
2023-03-29T04:59:50.065Z,7.30
2023-03-29T05:02:19.173Z,6.90
2023-03-29T05:04:47.085Z,7.63
2023-03-29T05:07:15.569Z,9.13
2023-03-29T05:09:43.768Z,9.07
2023-03-29T05:12:11.653Z,10.47
2023-03-29T05:14:39.435Z,10.93
2023-03-29T05:17:08.112Z,9.13
2023-03-29T05:19:38.395Z,8.20
2023-03-29T05:22:06.633Z,9.40
2023-03-29T05:24:34.432Z,8.33
2023-03-29T05:27:02.470Z,8.37
2023-03-29T05:29:32.734Z,7.43
2023-03-29T05:32:01.345Z,7.77
2023-03-29T05:34:29.746Z,8.70
2023-03-29T05:36:59.170Z,7.57
2023-03-29T05:39:27.019Z,8.20
2023-03-29T05:41:55.056Z,7.30
2023-03-29T05:44:23.076Z,7.07
2023-03-29T05:46:51.163Z,7.07
2023-03-29T05:49:19.430Z,7.17
2023-03-29T05:51:47.234Z,6.63
2023-03-29T05:54:16.560Z,6.67
2023-03-29T05:56:44.465Z,7.60
2023-03-29T05:59:13.782Z,7.27
2023-03-29T06:01:41.926Z,7.33
2023-03-29T06:04:10.746Z,7.50
2023-03-29T06:06:38.649Z,9.00
2023-03-29T06:09:06.906Z,8.50
2023-03-29T06:11:35.999Z,8.60
2023-03-29T06:14:03.859Z,7.65
2023-03-29T06:16:32.500Z,6.90
2023-03-29T06:19:00.443Z,7.45
2023-03-29T06:21:28.620Z,7.97
2023-03-29T06:23:56.409Z,9.10
2023-03-29T06:26:24.972Z,8.60
2023-03-29T06:28:54.373Z,8.38
2023-03-29T06:31:22.224Z,7.97
2023-03-29T06:33:50.110Z,8.30
2023-03-29T06:36:18.390Z,7.10
2023-03-29T06:38:47.187Z,6.78
2023-03-29T06:41:15.040Z,6.53
2023-03-29T06:43:43.208Z,6.50
2023-03-29T06:46:13.358Z,6.53
2023-03-29T06:48:42.005Z,5.70
2023-03-29T06:51:09.888Z,5.72
2023-03-29T06:53:37.850Z,5.43
2023-03-29T06:56:09.126Z,4.85
2023-03-29T06:58:37.660Z,4.68
2023-03-29T07:01:07.123Z,4.40
2023-03-29T07:03:36.403Z,4.13
2023-03-29T07:06:09.972Z,4.80
2023-03-29T07:08:43.466Z,4.90
2023-03-29T07:11:14.151Z,5.18
2023-03-29T07:13:43.115Z,4.57
2023-03-29T07:16:12.873Z,4.22
2023-03-29T07:18:44.073Z,4.88
2023-03-29T07:21:13.501Z,4.90
2023-03-29T07:23:42.100Z,3.63
2023-03-29T07:26:11.207Z,3.30
2023-03-29T07:28:40.343Z,3.10
2023-03-29T07:31:11.052Z,3.38
2023-03-29T07:33:40.801Z,3.50
2023-03-29T07:36:11.188Z,3.25
2023-03-29T07:38:39.053Z,2.90
2023-03-29T07:41:08.161Z,2.78
2023-03-29T07:43:36.366Z,3.10
2023-03-29T07:46:06.027Z,2.42
2023-03-29T07:48:36.448Z,2.90
2023-03-29T07:51:04.514Z,2.17
2023-03-29T07:53:33.895Z,2.53
2023-03-29T07:56:01.768Z,2.67
2023-03-29T07:58:29.698Z,2.65
2023-03-29T08:01:00.257Z,2.65
2023-03-29T08:03:28.824Z,2.67
2023-03-29T08:05:56.888Z,2.33
2023-03-29T08:08:24.642Z,2.55
2023-03-29T08:10:54.512Z,2.30
2023-03-29T08:13:22.267Z,2.30
2023-03-29T08:15:50.593Z,2.30
2023-03-29T08:18:18.966Z,2.38
2023-03-29T08:20:46.793Z,2.10
2023-03-29T08:23:14.620Z,2.10
2023-03-29T08:25:42.423Z,2.45
2023-03-29T08:28:11.639Z,2.13
2023-03-29T08:30:39.790Z,2.13
2023-03-29T08:33:07.737Z,2.10
2023-03-29T08:35:35.726Z,1.90
2023-03-29T08:38:03.635Z,2.38
2023-03-29T08:40:31.721Z,1.98
2023-03-29T08:43:17.743Z,1.75
2023-03-29T08:45:56.059Z,2.30
2023-03-29T08:48:28.697Z,1.80
2023-03-29T08:51:03.296Z,2.38
2023-03-29T08:53:36.987Z,2.08
2023-03-29T08:56:09.736Z,1.80
2023-03-29T08:58:39.525Z,1.98
2023-03-29T09:01:08.765Z,2.10
2023-03-29T09:03:40.859Z,2.13
2023-03-29T09:06:11.089Z,2.10
2023-03-29T09:08:41.181Z,1.88
2023-03-29T09:11:33.524Z,2.17
2023-03-29T09:14:29.057Z,2.10
2023-03-29T09:17:04.997Z,2.00
2023-03-29T09:19:40.449Z,2.58
2023-03-29T09:22:18.118Z,2.08
2023-03-29T09:24:59.884Z,2.38
2023-03-29T09:27:32.328Z,2.20
2023-03-29T09:30:14.593Z,2.00
2023-03-29T09:32:50.490Z,2.03
2023-03-29T09:35:23.777Z,2.00
2023-03-29T09:37:54.091Z,1.92
2023-03-29T09:40:25.694Z,1.90
2023-03-29T09:42:56.347Z,2.13
2023-03-29T09:45:25.774Z,2.03
2023-03-29T09:47:58.114Z,2.20
2023-03-29T09:50:32.037Z,2.08
2023-03-29T09:53:01.081Z,1.70
2023-03-29T09:55:32.344Z,1.75
2023-03-29T09:58:02.942Z,1.80
2023-03-29T10:00:32.200Z,2.30
2023-03-29T10:03:00.448Z,2.55
2023-03-29T10:05:33.302Z,2.30
2023-03-29T10:08:02.276Z,1.98
2023-03-29T10:10:32.950Z,1.80
2023-03-29T10:13:04.381Z,1.90
2023-03-29T10:15:33.751Z,1.60
2023-03-29T10:18:03.564Z,2.10
2023-03-29T10:20:31.733Z,1.92
2023-03-29T10:23:01.151Z,1.85
2023-03-29T10:25:32.906Z,1.70
2023-03-29T10:28:07.165Z,1.80
2023-03-29T10:30:40.145Z,2.00
2023-03-29T10:33:16.373Z,1.90
2023-03-29T10:35:44.933Z,2.05
2023-03-29T10:38:14.960Z,2.00
2023-03-29T10:40:45.107Z,1.90
2023-03-29T10:43:15.914Z,1.70
2023-03-29T10:45:48.563Z,1.80
2023-03-29T10:48:19.342Z,1.77
2023-03-29T10:50:52.938Z,1.70
2023-03-29T10:53:26.253Z,1.95
2023-03-29T10:56:03.997Z,2.00
2023-03-29T10:58:43.310Z,2.08
2023-03-29T11:01:18.599Z,1.90
2023-03-29T11:04:05.759Z,1.90
2023-03-29T11:06:39.648Z,1.80
2023-03-29T11:09:19.248Z,2.00
2023-03-29T11:12:12.619Z,1.73
2023-03-29T11:14:54.168Z,1.73
2023-03-29T11:17:35.850Z,1.90
2023-03-29T11:20:20.567Z,1.80
2023-03-29T11:22:57.428Z,1.90
2023-03-29T11:25:36.047Z,1.85
2023-03-29T11:28:12.101Z,1.90
2023-03-29T11:30:47.332Z,2.00
2023-03-29T11:33:34.170Z,1.77
2023-03-29T11:36:11.593Z,2.35
2023-03-29T11:38:45.325Z,1.90
2023-03-29T11:41:17.771Z,1.95
2023-03-29T11:43:48.984Z,2.10
2023-03-29T11:46:22.344Z,2.10
2023-03-29T11:48:54.926Z,1.85
2023-03-29T11:51:26.865Z,2.20
2023-03-29T11:54:04.290Z,2.00
2023-03-29T11:56:38.055Z,1.85
2023-03-29T11:59:13.207Z,1.80
2023-03-29T12:01:46.861Z,2.13
2023-03-29T12:04:22.990Z,1.90
2023-03-29T12:06:59.034Z,1.92
2023-03-29T12:09:34.255Z,1.95
2023-03-29T12:12:09.944Z,2.30
2023-03-29T12:14:50.409Z,2.20
2023-03-29T12:17:24.175Z,2.10
2023-03-29T12:20:01.722Z,2.33
2023-03-29T12:22:29.648Z,1.83
2023-03-29T12:24:58.665Z,2.30
2023-03-29T12:27:31.054Z,2.03
2023-03-29T12:30:34.463Z,2.00
2023-03-29T12:33:33.282Z,2.20
2023-03-29T12:36:14.382Z,2.10
2023-03-29T12:38:44.976Z,2.00
2023-03-29T12:41:19.121Z,2.30
2023-03-29T12:43:48.159Z,2.28
2023-03-29T12:46:19.366Z,2.13
2023-03-29T12:48:50.335Z,2.00
2023-03-29T12:51:22.843Z,2.13
2023-03-29T12:53:52.985Z,1.92
2023-03-29T12:56:23.613Z,2.30
2023-03-29T12:59:06.013Z,2.40
2023-03-29T13:01:36.943Z,2.42
2023-03-29T13:04:18.414Z,2.22
2023-03-29T13:07:03.198Z,2.17
2023-03-29T13:09:35.635Z,2.25
2023-03-29T13:12:22.798Z,2.15
2023-03-29T13:14:54.240Z,2.03
2023-03-29T13:17:27.330Z,2.28
2023-03-29T13:20:18.379Z,2.38
2023-03-29T13:23:00.012Z,2.40
2023-03-29T13:25:47.965Z,2.15
2023-03-29T13:28:24.538Z,2.20
2023-03-29T13:31:00.697Z,2.80
2023-03-29T13:33:45.600Z,2.40
2023-03-29T13:36:22.771Z,2.75
2023-03-29T13:38:56.004Z,2.50
2023-03-29T13:41:29.651Z,2.35
2023-03-29T13:43:58.654Z,2.20
2023-03-29T13:46:38.336Z,2.60
2023-03-29T13:49:13.103Z,2.33
2023-03-29T13:51:43.433Z,2.40
2023-03-29T13:54:24.374Z,2.85
2023-03-29T13:57:02.587Z,2.50
2023-03-29T13:59:37.835Z,2.47
2023-03-29T14:02:07.516Z,2.47
2023-03-29T14:04:42.413Z,2.38
2023-03-29T14:07:14.859Z,2.50
2023-03-29T14:09:46.533Z,2.83
2023-03-29T14:12:16.156Z,2.25
2023-03-29T14:14:58.235Z,2.50
2023-03-29T14:17:28.100Z,2.30
2023-03-29T14:19:59.227Z,2.33
2023-03-29T14:22:31.541Z,2.30
2023-03-29T14:25:03.810Z,2.28
2023-03-29T14:27:33.517Z,2.30
2023-03-29T14:30:01.372Z,2.35
2023-03-29T14:32:31.011Z,2.00
2023-03-29T14:34:59.064Z,2.55
2023-03-29T14:37:29.237Z,2.65
2023-03-29T14:39:59.987Z,1.95
2023-03-29T14:42:30.723Z,2.58
2023-03-29T14:44:59.720Z,2.70
2023-03-29T14:47:30.313Z,2.70
2023-03-29T14:50:00.920Z,2.30
2023-03-29T14:52:30.604Z,2.10
2023-03-29T14:55:01.090Z,2.45
2023-03-29T14:57:36.569Z,2.40
2023-03-29T15:00:17.701Z,2.17
2023-03-29T15:02:51.004Z,2.30
2023-03-29T15:05:37.988Z,2.50
2023-03-29T15:08:07.441Z,2.75
2023-03-29T15:10:37.749Z,2.20
2023-03-29T15:13:08.461Z,3.38
2023-03-29T15:15:39.181Z,2.63
2023-03-29T15:18:09.154Z,2.60
2023-03-29T15:20:39.845Z,2.58
2023-03-29T15:23:20.216Z,2.80
2023-03-29T15:25:52.044Z,2.58
2023-03-29T15:28:30.972Z,2.85
2023-03-29T15:31:07.649Z,2.50
2023-03-29T15:33:38.065Z,2.28
2023-03-29T15:36:07.857Z,2.67
2023-03-29T15:38:43.867Z,2.83
2023-03-29T15:41:14.061Z,2.30
2023-03-29T15:43:44.066Z,2.22
2023-03-29T15:46:13.475Z,2.40
2023-03-29T15:48:42.130Z,2.38
2023-03-29T15:51:11.563Z,2.58
2023-03-29T15:53:39.805Z,2.30
2023-03-29T15:56:10.160Z,2.80
2023-03-29T15:58:38.780Z,2.83
2023-03-29T16:01:15.942Z,2.95
2023-03-29T16:03:46.957Z,2.80
2023-03-29T16:06:16.093Z,2.28
2023-03-29T16:08:44.046Z,2.90
2023-03-29T16:11:12.115Z,2.45
2023-03-29T16:13:39.894Z,3.30
2023-03-29T16:16:11.355Z,3.10
2023-03-29T16:18:39.429Z,2.70
2023-03-29T16:21:12.350Z,2.40
2023-03-29T16:23:40.673Z,2.83
2023-03-29T16:26:09.030Z,2.90
2023-03-29T16:28:37.775Z,2.65
2023-03-29T16:31:06.165Z,2.53
2023-03-29T16:33:35.315Z,2.70
2023-03-29T16:36:03.584Z,3.33
2023-03-29T16:38:31.681Z,2.42
2023-03-29T16:40:59.713Z,2.50
2023-03-29T16:43:27.751Z,2.90
2023-03-29T16:45:55.567Z,2.90
2023-03-29T16:48:23.727Z,2.70
2023-03-29T16:50:52.944Z,2.60
2023-03-29T16:53:21.629Z,3.10
2023-03-29T16:55:50.702Z,3.05
2023-03-29T16:58:18.489Z,3.67
2023-03-29T17:00:48.154Z,2.55
2023-03-29T17:03:17.000Z,2.95
2023-03-29T17:05:48.245Z,2.90
2023-03-29T17:08:17.749Z,3.10
2023-03-29T17:10:46.105Z,3.00
2023-03-29T17:13:14.343Z,3.20
2023-03-29T17:15:42.466Z,2.80
2023-03-29T17:18:10.587Z,2.72
2023-03-29T17:20:39.901Z,2.80
2023-03-29T17:23:09.000Z,2.90
2023-03-29T17:25:38.630Z,3.40
2023-03-29T17:28:06.497Z,3.10
2023-03-29T17:30:34.863Z,2.88
2023-03-29T17:33:03.211Z,2.85
2023-03-29T17:35:31.361Z,3.20
2023-03-29T17:38:00.436Z,3.20
2023-03-29T17:40:28.313Z,2.80
2023-03-29T17:42:57.431Z,3.20
2023-03-29T17:45:25.751Z,2.85
2023-03-29T17:47:53.582Z,2.80
2023-03-29T17:50:21.648Z,2.88
2023-03-29T17:52:49.523Z,3.15
2023-03-29T17:55:17.996Z,2.88
2023-03-29T17:57:45.777Z,3.17
2023-03-29T18:00:17.148Z,3.35
2023-03-29T18:02:45.471Z,2.90
2023-03-29T18:05:13.422Z,3.28
2023-03-29T18:07:41.628Z,3.10
2023-03-29T18:10:09.978Z,3.20
2023-03-29T18:12:37.847Z,3.30
2023-03-29T18:15:06.398Z,3.33
2023-03-29T18:17:36.739Z,3.38
2023-03-29T18:20:09.786Z,3.45
2023-03-29T18:22:37.620Z,3.17
2023-03-29T18:25:07.364Z,3.63
2023-03-29T18:27:35.149Z,3.30
2023-03-29T18:30:03.009Z,3.35
2023-03-29T18:32:30.977Z,4.00
2023-03-29T18:35:02.283Z,4.03
2023-03-29T18:37:30.121Z,4.38
2023-03-29T18:39:58.056Z,3.90
2023-03-29T18:42:26.144Z,3.53
2023-03-29T18:44:54.999Z,3.75
2023-03-29T18:47:27.280Z,3.83
2023-03-29T18:49:55.274Z,3.75
2023-03-29T18:52:24.585Z,3.50
2023-03-29T18:54:52.388Z,3.85
2023-03-29T18:57:20.362Z,3.72
2023-03-29T18:59:48.501Z,3.70
2023-03-29T19:02:16.779Z,3.65
2023-03-29T19:04:44.725Z,3.70
2023-03-29T19:07:12.664Z,3.63
2023-03-29T19:09:42.709Z,3.60
2023-03-29T19:12:10.707Z,3.38
2023-03-29T19:14:38.476Z,3.97
2023-03-29T19:17:06.341Z,3.75
2023-03-29T19:19:34.180Z,4.25
2023-03-29T19:22:01.934Z,3.97
2023-03-29T19:24:29.917Z,4.00
2023-03-29T19:26:59.126Z,5.90
2023-03-29T19:29:27.294Z,5.32
2023-03-29T19:31:56.984Z,6.05
2023-03-29T19:34:24.890Z,6.15
2023-03-29T19:36:53.552Z,6.28
2023-03-29T19:39:21.915Z,5.90
2023-03-29T19:41:49.691Z,5.73
2023-03-29T19:44:20.111Z,5.37
2023-03-29T19:46:47.909Z,5.57
2023-03-29T19:49:15.798Z,5.17
2023-03-29T19:51:44.327Z,5.22
2023-03-29T19:54:12.766Z,5.70
2023-03-29T19:56:42.727Z,5.87
2023-03-29T19:59:11.280Z,5.90
2023-03-29T20:01:42.741Z,6.20
2023-03-29T20:04:11.838Z,6.03
2023-03-29T20:06:39.950Z,6.57
2023-03-29T20:09:07.812Z,6.77
2023-03-29T20:11:35.700Z,10.67
2023-03-29T20:14:03.484Z,14.27
2023-03-29T20:16:34.336Z,15.70
2023-03-29T20:19:03.798Z,14.80
2023-03-29T20:21:33.618Z,16.10
2023-03-29T20:24:01.533Z,16.20
2023-03-29T20:26:29.320Z,16.70
2023-03-29T20:28:57.302Z,15.30
2023-03-29T20:31:25.145Z,14.40
2023-03-29T20:33:53.009Z,13.83
2023-03-29T20:36:23.153Z,13.87
2023-03-29T20:38:51.404Z,14.17
2023-03-29T20:41:20.684Z,11.43
2023-03-29T20:43:48.497Z,9.23
2023-03-29T20:46:18.271Z,9.10
2023-03-29T20:48:53.413Z,8.73
2023-03-29T20:51:30.291Z,8.63
2023-03-29T20:54:02.894Z,8.00
2023-03-29T20:56:31.503Z,8.93
2023-03-29T20:58:59.835Z,9.60
2023-03-29T21:01:27.933Z,9.67
2023-03-29T21:03:55.960Z,8.00
2023-03-29T21:06:25.878Z,6.87
2023-03-29T21:08:54.038Z,7.47
2023-03-29T21:11:22.054Z,7.43
2023-03-29T21:13:49.770Z,8.03
2023-03-29T21:16:17.575Z,8.03
2023-03-29T21:18:45.484Z,9.37
2023-03-29T21:21:13.656Z,6.87
2023-03-29T21:23:42.778Z,6.87
2023-03-29T21:26:10.606Z,7.30
2023-03-29T21:28:38.619Z,7.53
2023-03-29T21:31:07.253Z,7.10
2023-03-29T21:33:36.409Z,6.33
2023-03-29T21:36:04.971Z,5.90
2023-03-29T21:38:33.059Z,7.23
2023-03-29T21:41:02.811Z,7.60
2023-03-29T21:43:30.990Z,6.50
2023-03-29T21:45:59.269Z,7.00
2023-03-29T21:48:27.299Z,7.07
2023-03-29T21:50:55.054Z,7.80
2023-03-29T21:53:24.569Z,6.17
2023-03-29T21:55:55.427Z,6.57
2023-03-29T21:58:24.608Z,6.43
2023-03-29T22:00:52.576Z,6.50
2023-03-29T22:03:20.449Z,6.57
2023-03-29T22:05:56.947Z,6.73
2023-03-29T22:08:26.457Z,7.53
2023-03-29T22:10:57.733Z,7.33
2023-03-29T22:13:28.712Z,7.20
2023-03-29T22:15:59.103Z,7.80
2023-03-29T22:18:28.126Z,7.20
2023-03-29T22:20:56.059Z,7.23
2023-03-29T22:23:24.891Z,7.47
2023-03-29T22:25:53.014Z,7.07
2023-03-29T22:28:20.843Z,7.17
2023-03-29T22:30:50.111Z,6.83
2023-03-29T22:33:17.880Z,6.67
2023-03-29T22:35:45.670Z,7.70
2023-03-29T22:38:13.593Z,7.33
2023-03-29T22:40:41.518Z,7.13
2023-03-29T22:43:09.300Z,7.13
2023-03-29T22:45:37.365Z,6.90
2023-03-29T22:48:07.361Z,6.57
2023-03-29T22:50:35.109Z,6.87
2023-03-29T22:53:02.939Z,6.87
2023-03-29T22:55:32.300Z,7.03
2023-03-29T22:58:00.217Z,6.63
2023-03-29T23:00:28.060Z,7.07
2023-03-29T23:02:55.891Z,7.00
2023-03-29T23:05:25.358Z,6.60
2023-03-29T23:07:53.208Z,6.57
2023-03-29T23:10:21.054Z,6.60
2023-03-29T23:12:49.669Z,6.70
2023-03-29T23:15:17.964Z,6.63
2023-03-29T23:17:45.912Z,6.50
2023-03-29T23:20:14.005Z,7.00
2023-03-29T23:22:43.102Z,6.20
2023-03-29T23:25:12.071Z,6.50
2023-03-29T23:27:39.873Z,6.00
2023-03-29T23:30:08.921Z,6.60
2023-03-29T23:32:36.753Z,6.93
2023-03-29T23:35:06.121Z,6.53
2023-03-29T23:37:34.045Z,6.00
2023-03-29T23:40:07.853Z,6.10
2023-03-29T23:42:37.043Z,6.30
2023-03-29T23:45:05.552Z,6.60
2023-03-29T23:47:33.472Z,6.53
2023-03-29T23:50:02.841Z,5.87
2023-03-29T23:52:33.277Z,5.63
2023-03-29T23:55:01.689Z,6.50
2023-03-29T23:57:30.845Z,6.77
